sensor_id;sensor_type;location;lat;lon;timestamp;P1;durP1;ratioP1;P2;durP2;ratioP2
30571;SDS011;17348;50.948;10.696;2023-03-07T00:02:50;25.90;;;11.33;;
30571;SDS011;17348;50.948;10.696;2023-03-07T00:05:59;28.43;;;11.13;;
30571;SDS011;17348;50.948;10.696;2023-03-07T00:09:01;28.60;;;11.20;;
30571;SDS011;17348;50.948;10.696;2023-03-07T00:12:04;28.47;;;11.10;;
30571;SDS011;17348;50.948;10.696;2023-03-07T00:15:07;27.23;;;10.53;;
30571;SDS011;17348;50.948;10.696;2023-03-07T00:18:12;26.57;;;11.13;;
30571;SDS011;17348;50.948;10.696;2023-03-07T00:21:14;29.93;;;12.27;;
30571;SDS011;17348;50.948;10.696;2023-03-07T00:24:18;28.30;;;10.83;;
30571;SDS011;17348;50.948;10.696;2023-03-07T00:27:21;26.07;;;11.83;;
30571;SDS011;17348;50.948;10.696;2023-03-07T00:30:23;24.73;;;10.83;;
30571;SDS011;17348;50.948;10.696;2023-03-07T00:33:27;28.30;;;11.77;;
30571;SDS011;17348;50.948;10.696;2023-03-07T00:36:29;24.70;;;10.13;;
30571;SDS011;17348;50.948;10.696;2023-03-07T00:39:31;27.93;;;10.97;;
30571;SDS011;17348;50.948;10.696;2023-03-07T00:42:34;30.93;;;11.37;;
30571;SDS011;17348;50.948;10.696;2023-03-07T00:45:36;26.40;;;10.07;;
30571;SDS011;17348;50.948;10.696;2023-03-07T00:48:40;25.83;;;10.73;;
30571;SDS011;17348;50.948;10.696;2023-03-07T00:51:43;25.30;;;11.37;;
30571;SDS011;17348;50.948;10.696;2023-03-07T00:54:45;28.47;;;11.07;;
30571;SDS011;17348;50.948;10.696;2023-03-07T00:57:47;34.27;;;13.00;;
30571;SDS011;17348;50.948;10.696;2023-03-07T01:00:50;26.33;;;11.07;;
30571;SDS011;17348;50.948;10.696;2023-03-07T01:03:54;33.43;;;12.43;;
30571;SDS011;17348;50.948;10.696;2023-03-07T01:06:56;32.23;;;11.53;;
30571;SDS011;17348;50.948;10.696;2023-03-07T01:09:58;27.93;;;11.43;;
30571;SDS011;17348;50.948;10.696;2023-03-07T01:13:01;28.80;;;10.43;;
30571;SDS011;17348;50.948;10.696;2023-03-07T01:16:07;26.70;;;11.67;;
30571;SDS011;17348;50.948;10.696;2023-03-07T01:19:12;26.37;;;11.60;;
30571;SDS011;17348;50.948;10.696;2023-03-07T01:22:14;27.50;;;11.30;;
30571;SDS011;17348;50.948;10.696;2023-03-07T01:25:16;28.83;;;11.13;;
30571;SDS011;17348;50.948;10.696;2023-03-07T01:28:19;31.13;;;10.90;;
30571;SDS011;17348;50.948;10.696;2023-03-07T01:31:21;25.97;;;9.97;;
30571;SDS011;17348;50.948;10.696;2023-03-07T01:34:25;27.17;;;10.87;;
30571;SDS011;17348;50.948;10.696;2023-03-07T01:37:27;27.80;;;12.23;;
30571;SDS011;17348;50.948;10.696;2023-03-07T01:40:29;27.87;;;11.17;;
30571;SDS011;17348;50.948;10.696;2023-03-07T01:43:32;27.20;;;10.23;;
30571;SDS011;17348;50.948;10.696;2023-03-07T01:46:40;31.83;;;11.57;;
30571;SDS011;17348;50.948;10.696;2023-03-07T01:49:46;28.30;;;10.63;;
30571;SDS011;17348;50.948;10.696;2023-03-07T01:52:48;31.67;;;11.27;;
30571;SDS011;17348;50.948;10.696;2023-03-07T01:55:53;35.07;;;12.17;;
30571;SDS011;17348;50.948;10.696;2023-03-07T01:58:57;30.23;;;12.03;;
30571;SDS011;17348;50.948;10.696;2023-03-07T02:02:00;33.80;;;13.67;;
30571;SDS011;17348;50.948;10.696;2023-03-07T02:05:09;33.80;;;12.93;;
30571;SDS011;17348;50.948;10.696;2023-03-07T02:08:13;29.40;;;11.90;;
30571;SDS011;17348;50.948;10.696;2023-03-07T02:11:18;32.20;;;12.43;;
30571;SDS011;17348;50.948;10.696;2023-03-07T02:14:20;40.37;;;13.03;;
30571;SDS011;17348;50.948;10.696;2023-03-07T02:17:22;34.37;;;12.17;;
30571;SDS011;17348;50.948;10.696;2023-03-07T02:20:29;30.10;;;11.97;;
30571;SDS011;17348;50.948;10.696;2023-03-07T02:26:43;27.73;;;10.63;;
30571;SDS011;17348;50.948;10.696;2023-03-07T02:29:46;31.10;;;11.07;;
30571;SDS011;17348;50.948;10.696;2023-03-07T02:32:49;31.17;;;12.80;;
30571;SDS011;17348;50.948;10.696;2023-03-07T02:35:52;28.27;;;11.30;;
30571;SDS011;17348;50.948;10.696;2023-03-07T02:38:57;27.63;;;11.23;;
30571;SDS011;17348;50.948;10.696;2023-03-07T02:42:03;29.30;;;11.40;;
30571;SDS011;17348;50.948;10.696;2023-03-07T02:45:12;28.10;;;11.83;;
30571;SDS011;17348;50.948;10.696;2023-03-07T02:48:16;30.23;;;12.53;;
30571;SDS011;17348;50.948;10.696;2023-03-07T02:51:19;34.07;;;12.43;;
30571;SDS011;17348;50.948;10.696;2023-03-07T02:54:21;30.80;;;11.93;;
30571;SDS011;17348;50.948;10.696;2023-03-07T02:57:25;34.53;;;11.80;;
30571;SDS011;17348;50.948;10.696;2023-03-07T03:00:28;33.90;;;12.77;;
30571;SDS011;17348;50.948;10.696;2023-03-07T03:03:30;31.27;;;12.50;;
30571;SDS011;17348;50.948;10.696;2023-03-07T03:06:32;37.50;;;12.37;;
30571;SDS011;17348;50.948;10.696;2023-03-07T03:09:35;30.63;;;11.17;;
30571;SDS011;17348;50.948;10.696;2023-03-07T03:12:38;32.60;;;12.60;;
30571;SDS011;17348;50.948;10.696;2023-03-07T03:15:41;27.20;;;11.10;;
30571;SDS011;17348;50.948;10.696;2023-03-07T03:18:43;26.13;;;11.07;;
30571;SDS011;17348;50.948;10.696;2023-03-07T03:21:45;34.13;;;12.37;;
30571;SDS011;17348;50.948;10.696;2023-03-07T03:24:48;27.13;;;10.93;;
30571;SDS011;17348;50.948;10.696;2023-03-07T03:27:52;32.40;;;11.13;;
30571;SDS011;17348;50.948;10.696;2023-03-07T03:30:57;25.63;;;10.20;;
30571;SDS011;17348;50.948;10.696;2023-03-07T03:34:00;26.00;;;10.63;;
30571;SDS011;17348;50.948;10.696;2023-03-07T03:37:05;29.33;;;11.13;;
30571;SDS011;17348;50.948;10.696;2023-03-07T03:40:08;23.70;;;11.07;;
30571;SDS011;17348;50.948;10.696;2023-03-07T03:43:18;21.37;;;9.03;;
30571;SDS011;17348;50.948;10.696;2023-03-07T03:46:20;21.27;;;8.60;;
30571;SDS011;17348;50.948;10.696;2023-03-07T03:49:22;24.33;;;8.80;;
30571;SDS011;17348;50.948;10.696;2023-03-07T03:52:25;19.73;;;7.67;;
30571;SDS011;17348;50.948;10.696;2023-03-07T03:55:27;23.27;;;9.20;;
30571;SDS011;17348;50.948;10.696;2023-03-07T03:58:31;20.40;;;8.43;;
30571;SDS011;17348;50.948;10.696;2023-03-07T04:01:33;17.27;;;7.47;;
30571;SDS011;17348;50.948;10.696;2023-03-07T04:04:36;20.07;;;8.67;;
30571;SDS011;17348;50.948;10.696;2023-03-07T04:07:38;17.17;;;7.43;;
30571;SDS011;17348;50.948;10.696;2023-03-07T04:10:40;17.97;;;7.50;;
30571;SDS011;17348;50.948;10.696;2023-03-07T04:13:44;18.87;;;8.07;;
30571;SDS011;17348;50.948;10.696;2023-03-07T04:16:47;13.67;;;5.97;;
30571;SDS011;17348;50.948;10.696;2023-03-07T04:19:49;17.00;;;7.47;;
30571;SDS011;17348;50.948;10.696;2023-03-07T04:22:52;17.33;;;7.23;;
30571;SDS011;17348;50.948;10.696;2023-03-07T04:25:55;15.10;;;6.57;;
30571;SDS011;17348;50.948;10.696;2023-03-07T04:28:59;13.90;;;6.97;;
30571;SDS011;17348;50.948;10.696;2023-03-07T04:32:02;14.83;;;6.90;;
30571;SDS011;17348;50.948;10.696;2023-03-07T04:35:04;12.50;;;6.00;;
30571;SDS011;17348;50.948;10.696;2023-03-07T04:38:07;18.07;;;6.57;;
30571;SDS011;17348;50.948;10.696;2023-03-07T04:41:10;13.30;;;5.70;;
30571;SDS011;17348;50.948;10.696;2023-03-07T04:44:15;11.97;;;4.93;;
30571;SDS011;17348;50.948;10.696;2023-03-07T04:47:18;12.40;;;5.17;;
30571;SDS011;17348;50.948;10.696;2023-03-07T04:50:20;12.33;;;5.20;;
30571;SDS011;17348;50.948;10.696;2023-03-07T04:53:22;10.87;;;5.03;;
30571;SDS011;17348;50.948;10.696;2023-03-07T04:56:25;8.83;;;4.30;;
30571;SDS011;17348;50.948;10.696;2023-03-07T04:59:28;14.73;;;4.80;;
30571;SDS011;17348;50.948;10.696;2023-03-07T05:02:31;11.50;;;4.37;;
30571;SDS011;17348;50.948;10.696;2023-03-07T05:05:33;12.70;;;5.13;;
30571;SDS011;17348;50.948;10.696;2023-03-07T05:08:35;12.97;;;5.20;;
30571;SDS011;17348;50.948;10.696;2023-03-07T05:11:38;14.37;;;5.10;;
30571;SDS011;17348;50.948;10.696;2023-03-07T05:14:41;10.43;;;4.50;;
30571;SDS011;17348;50.948;10.696;2023-03-07T05:17:44;10.40;;;4.80;;
30571;SDS011;17348;50.948;10.696;2023-03-07T05:20:46;8.27;;;4.03;;
30571;SDS011;17348;50.948;10.696;2023-03-07T05:23:49;10.00;;;3.83;;
30571;SDS011;17348;50.948;10.696;2023-03-07T05:26:51;9.17;;;4.30;;
30571;SDS011;17348;50.948;10.696;2023-03-07T05:29:55;10.27;;;4.07;;
30571;SDS011;17348;50.948;10.696;2023-03-07T05:32:57;9.87;;;4.57;;
30571;SDS011;17348;50.948;10.696;2023-03-07T05:35:59;11.20;;;4.50;;
30571;SDS011;17348;50.948;10.696;2023-03-07T05:39:03;9.40;;;3.93;;
30571;SDS011;17348;50.948;10.696;2023-03-07T05:42:05;8.27;;;4.00;;
30571;SDS011;17348;50.948;10.696;2023-03-07T05:45:09;13.00;;;4.20;;
30571;SDS011;17348;50.948;10.696;2023-03-07T05:48:12;12.37;;;5.17;;
30571;SDS011;17348;50.948;10.696;2023-03-07T05:51:14;8.43;;;4.00;;
30571;SDS011;17348;50.948;10.696;2023-03-07T05:54:17;9.23;;;4.83;;
30571;SDS011;17348;50.948;10.696;2023-03-07T05:57:19;9.83;;;4.80;;
30571;SDS011;17348;50.948;10.696;2023-03-07T06:00:23;8.37;;;4.07;;
30571;SDS011;17348;50.948;10.696;2023-03-07T06:03:25;8.50;;;3.90;;
30571;SDS011;17348;50.948;10.696;2023-03-07T06:06:28;6.80;;;3.90;;
30571;SDS011;17348;50.948;10.696;2023-03-07T06:09:30;6.87;;;3.90;;
30571;SDS011;17348;50.948;10.696;2023-03-07T06:12:32;10.97;;;5.37;;
30571;SDS011;17348;50.948;10.696;2023-03-07T06:15:36;10.60;;;4.50;;
30571;SDS011;17348;50.948;10.696;2023-03-07T06:18:38;11.37;;;4.93;;
30571;SDS011;17348;50.948;10.696;2023-03-07T06:21:41;13.10;;;5.30;;
30571;SDS011;17348;50.948;10.696;2023-03-07T06:24:43;12.00;;;4.60;;
30571;SDS011;17348;50.948;10.696;2023-03-07T06:27:45;8.23;;;4.93;;
30571;SDS011;17348;50.948;10.696;2023-03-07T06:30:49;10.63;;;4.77;;
30571;SDS011;17348;50.948;10.696;2023-03-07T06:33:52;8.17;;;4.27;;
30571;SDS011;17348;50.948;10.696;2023-03-07T06:36:54;7.83;;;3.93;;
30571;SDS011;17348;50.948;10.696;2023-03-07T06:39:56;12.90;;;5.33;;
30571;SDS011;17348;50.948;10.696;2023-03-07T06:42:59;10.83;;;4.57;;
30571;SDS011;17348;50.948;10.696;2023-03-07T06:46:02;10.57;;;4.40;;
30571;SDS011;17348;50.948;10.696;2023-03-07T06:49:05;10.40;;;5.00;;
30571;SDS011;17348;50.948;10.696;2023-03-07T06:52:08;10.80;;;4.43;;
30571;SDS011;17348;50.948;10.696;2023-03-07T06:55:10;9.20;;;4.87;;
30571;SDS011;17348;50.948;10.696;2023-03-07T06:58:12;9.00;;;4.70;;
30571;SDS011;17348;50.948;10.696;2023-03-07T07:01:17;10.13;;;4.53;;
30571;SDS011;17348;50.948;10.696;2023-03-07T07:04:20;8.90;;;4.40;;
30571;SDS011;17348;50.948;10.696;2023-03-07T07:07:22;10.13;;;5.27;;
30571;SDS011;17348;50.948;10.696;2023-03-07T07:10:25;14.17;;;6.33;;
30571;SDS011;17348;50.948;10.696;2023-03-07T07:13:27;11.40;;;5.57;;
30571;SDS011;17348;50.948;10.696;2023-03-07T07:16:31;11.43;;;5.13;;
30571;SDS011;17348;50.948;10.696;2023-03-07T07:19:35;15.40;;;6.57;;
30571;SDS011;17348;50.948;10.696;2023-03-07T07:22:38;12.23;;;5.80;;
30571;SDS011;17348;50.948;10.696;2023-03-07T07:25:40;10.37;;;5.13;;
30571;SDS011;17348;50.948;10.696;2023-03-07T07:28:42;12.10;;;5.60;;
30571;SDS011;17348;50.948;10.696;2023-03-07T07:31:46;14.00;;;5.63;;
30571;SDS011;17348;50.948;10.696;2023-03-07T07:34:50;11.70;;;5.67;;
30571;SDS011;17348;50.948;10.696;2023-03-07T07:37:52;11.73;;;5.73;;
30571;SDS011;17348;50.948;10.696;2023-03-07T07:40:55;13.70;;;6.03;;
30571;SDS011;17348;50.948;10.696;2023-03-07T07:43:57;15.83;;;8.07;;
30571;SDS011;17348;50.948;10.696;2023-03-07T07:47:01;15.47;;;6.77;;
30571;SDS011;17348;50.948;10.696;2023-03-07T07:50:04;11.83;;;5.90;;
30571;SDS011;17348;50.948;10.696;2023-03-07T07:53:06;12.97;;;6.70;;
30571;SDS011;17348;50.948;10.696;2023-03-07T07:56:09;17.00;;;7.77;;
30571;SDS011;17348;50.948;10.696;2023-03-07T07:59:11;13.37;;;6.90;;
30571;SDS011;17348;50.948;10.696;2023-03-07T08:02:15;13.27;;;6.97;;
30571;SDS011;17348;50.948;10.696;2023-03-07T08:05:18;17.40;;;7.77;;
30571;SDS011;17348;50.948;10.696;2023-03-07T08:08:21;13.63;;;6.47;;
30571;SDS011;17348;50.948;10.696;2023-03-07T08:11:24;15.43;;;7.40;;
30571;SDS011;17348;50.948;10.696;2023-03-07T08:14:27;16.57;;;7.73;;
30571;SDS011;17348;50.948;10.696;2023-03-07T08:17:30;24.23;;;7.87;;
30571;SDS011;17348;50.948;10.696;2023-03-07T08:20:33;21.33;;;8.07;;
30571;SDS011;17348;50.948;10.696;2023-03-07T08:23:37;14.57;;;7.07;;
30571;SDS011;17348;50.948;10.696;2023-03-07T08:26:39;18.37;;;7.70;;
30571;SDS011;17348;50.948;10.696;2023-03-07T08:29:41;16.30;;;7.73;;
30571;SDS011;17348;50.948;10.696;2023-03-07T08:32:47;12.77;;;6.27;;
30571;SDS011;17348;50.948;10.696;2023-03-07T08:35:49;16.97;;;7.20;;
30571;SDS011;17348;50.948;10.696;2023-03-07T08:38:52;17.80;;;7.40;;
30571;SDS011;17348;50.948;10.696;2023-03-07T08:41:54;14.83;;;7.03;;
30571;SDS011;17348;50.948;10.696;2023-03-07T08:44:56;18.37;;;7.33;;
30571;SDS011;17348;50.948;10.696;2023-03-07T08:48:00;14.13;;;7.03;;
30571;SDS011;17348;50.948;10.696;2023-03-07T08:51:04;17.97;;;7.67;;
30571;SDS011;17348;50.948;10.696;2023-03-07T08:54:07;19.07;;;8.30;;
30571;SDS011;17348;50.948;10.696;2023-03-07T08:57:10;15.70;;;7.67;;
30571;SDS011;17348;50.948;10.696;2023-03-07T09:00:12;16.90;;;7.33;;
30571;SDS011;17348;50.948;10.696;2023-03-07T09:03:18;18.03;;;7.60;;
30571;SDS011;17348;50.948;10.696;2023-03-07T09:06:20;13.73;;;6.77;;
30571;SDS011;17348;50.948;10.696;2023-03-07T09:09:23;23.80;;;8.03;;
30571;SDS011;17348;50.948;10.696;2023-03-07T09:12:25;16.13;;;7.53;;
30571;SDS011;17348;50.948;10.696;2023-03-07T09:15:28;19.57;;;7.93;;
30571;SDS011;17348;50.948;10.696;2023-03-07T09:18:32;19.70;;;8.60;;
30571;SDS011;17348;50.948;10.696;2023-03-07T09:21:35;18.23;;;6.90;;
30571;SDS011;17348;50.948;10.696;2023-03-07T09:24:38;19.43;;;8.03;;
30571;SDS011;17348;50.948;10.696;2023-03-07T09:27:40;18.37;;;7.43;;
30571;SDS011;17348;50.948;10.696;2023-03-07T09:30:45;15.13;;;7.27;;
30571;SDS011;17348;50.948;10.696;2023-03-07T09:33:48;14.33;;;7.17;;
30571;SDS011;17348;50.948;10.696;2023-03-07T09:36:51;20.47;;;7.70;;
30571;SDS011;17348;50.948;10.696;2023-03-07T09:39:53;15.07;;;6.70;;
30571;SDS011;17348;50.948;10.696;2023-03-07T09:42:57;17.70;;;7.67;;
30571;SDS011;17348;50.948;10.696;2023-03-07T09:46:07;17.45;;;7.60;;
30571;SDS011;17348;50.948;10.696;2023-03-07T09:49:19;17.23;;;5.87;;
30571;SDS011;17348;50.948;10.696;2023-03-07T09:52:28;15.77;;;6.57;;
30571;SDS011;17348;50.948;10.696;2023-03-07T09:55:38;11.87;;;6.73;;
30571;SDS011;17348;50.948;10.696;2023-03-07T09:58:42;13.17;;;5.73;;
30571;SDS011;17348;50.948;10.696;2023-03-07T10:01:50;11.63;;;6.23;;
30571;SDS011;17348;50.948;10.696;2023-03-07T10:05:00;12.53;;;5.80;;
30571;SDS011;17348;50.948;10.696;2023-03-07T10:08:12;13.10;;;5.90;;
30571;SDS011;17348;50.948;10.696;2023-03-07T10:11:21;13.90;;;5.80;;
30571;SDS011;17348;50.948;10.696;2023-03-07T10:14:36;11.52;;;5.65;;
30571;SDS011;17348;50.948;10.696;2023-03-07T10:18:07;11.90;;;5.77;;
30571;SDS011;17348;50.948;10.696;2023-03-07T10:21:21;14.63;;;6.00;;
30571;SDS011;17348;50.948;10.696;2023-03-07T10:24:31;14.48;;;5.60;;
30571;SDS011;17348;50.948;10.696;2023-03-07T10:27:51;13.47;;;5.80;;
30571;SDS011;17348;50.948;10.696;2023-03-07T10:31:04;8.57;;;4.80;;
30571;SDS011;17348;50.948;10.696;2023-03-07T10:34:15;12.10;;;6.37;;
30571;SDS011;17348;50.948;10.696;2023-03-07T10:37:25;14.70;;;5.20;;
30571;SDS011;17348;50.948;10.696;2023-03-07T10:40:39;13.57;;;6.43;;
30571;SDS011;17348;50.948;10.696;2023-03-07T10:43:49;11.07;;;5.17;;
30571;SDS011;17348;50.948;10.696;2023-03-07T10:46:55;13.80;;;5.57;;
30571;SDS011;17348;50.948;10.696;2023-03-07T10:49:59;14.50;;;7.87;;
30571;SDS011;17348;50.948;10.696;2023-03-07T10:53:21;10.97;;;5.33;;
30571;SDS011;17348;50.948;10.696;2023-03-07T10:56:25;19.60;;;8.70;;
30571;SDS011;17348;50.948;10.696;2023-03-07T10:59:27;13.07;;;5.73;;
30571;SDS011;17348;50.948;10.696;2023-03-07T11:02:31;15.20;;;5.83;;
30571;SDS011;17348;50.948;10.696;2023-03-07T11:05:36;11.83;;;5.03;;
30571;SDS011;17348;50.948;10.696;2023-03-07T11:08:42;14.43;;;5.83;;
30571;SDS011;17348;50.948;10.696;2023-03-07T11:11:50;12.23;;;5.63;;
30571;SDS011;17348;50.948;10.696;2023-03-07T11:14:56;12.87;;;6.27;;
30571;SDS011;17348;50.948;10.696;2023-03-07T11:18:23;14.63;;;5.67;;
30571;SDS011;17348;50.948;10.696;2023-03-07T11:21:28;13.53;;;5.97;;
30571;SDS011;17348;50.948;10.696;2023-03-07T11:24:37;11.80;;;5.63;;
30571;SDS011;17348;50.948;10.696;2023-03-07T11:27:46;13.90;;;5.63;;
30571;SDS011;17348;50.948;10.696;2023-03-07T11:30:52;11.27;;;5.67;;
30571;SDS011;17348;50.948;10.696;2023-03-07T11:33:58;13.23;;;5.47;;
30571;SDS011;17348;50.948;10.696;2023-03-07T11:37:16;11.03;;;5.90;;
30571;SDS011;17348;50.948;10.696;2023-03-07T11:40:28;11.20;;;5.27;;
30571;SDS011;17348;50.948;10.696;2023-03-07T11:43:40;14.27;;;6.43;;
30571;SDS011;17348;50.948;10.696;2023-03-07T11:47:07;16.23;;;7.37;;
30571;SDS011;17348;50.948;10.696;2023-03-07T11:50:28;13.05;;;5.45;;
30571;SDS011;17348;50.948;10.696;2023-03-07T11:57:02;14.43;;;5.80;;
30571;SDS011;17348;50.948;10.696;2023-03-07T12:00:25;17.20;;;6.33;;
30571;SDS011;17348;50.948;10.696;2023-03-07T12:03:40;12.40;;;6.27;;
30571;SDS011;17348;50.948;10.696;2023-03-07T12:07:02;13.27;;;6.70;;
30571;SDS011;17348;50.948;10.696;2023-03-07T12:10:14;9.23;;;3.70;;
30571;SDS011;17348;50.948;10.696;2023-03-07T12:13:34;12.53;;;5.83;;
30571;SDS011;17348;50.948;10.696;2023-03-07T12:16:45;14.17;;;6.33;;
30571;SDS011;17348;50.948;10.696;2023-03-07T12:23:27;11.67;;;4.70;;
30571;SDS011;17348;50.948;10.696;2023-03-07T12:29:46;12.37;;;6.40;;
30571;SDS011;17348;50.948;10.696;2023-03-07T12:32:52;11.10;;;5.45;;
30571;SDS011;17348;50.948;10.696;2023-03-07T12:35:57;9.47;;;5.57;;
30571;SDS011;17348;50.948;10.696;2023-03-07T12:39:05;10.00;;;5.40;;
30571;SDS011;17348;50.948;10.696;2023-03-07T12:42:18;13.73;;;5.53;;
30571;SDS011;17348;50.948;10.696;2023-03-07T12:45:35;10.70;;;4.68;;
30571;SDS011;17348;50.948;10.696;2023-03-07T12:48:47;17.23;;;5.60;;
30571;SDS011;17348;50.948;10.696;2023-03-07T12:51:56;9.90;;;5.38;;
30571;SDS011;17348;50.948;10.696;2023-03-07T12:55:03;13.87;;;5.53;;
30571;SDS011;17348;50.948;10.696;2023-03-07T12:58:18;11.83;;;5.50;;
30571;SDS011;17348;50.948;10.696;2023-03-07T13:01:28;11.43;;;5.27;;
30571;SDS011;17348;50.948;10.696;2023-03-07T13:04:33;7.77;;;4.47;;
30571;SDS011;17348;50.948;10.696;2023-03-07T13:07:37;10.55;;;5.18;;
30571;SDS011;17348;50.948;10.696;2023-03-07T13:10:42;11.07;;;5.03;;
30571;SDS011;17348;50.948;10.696;2023-03-07T13:13:46;11.80;;;4.90;;
30571;SDS011;17348;50.948;10.696;2023-03-07T13:16:53;12.43;;;4.87;;
30571;SDS011;17348;50.948;10.696;2023-03-07T13:19:59;12.57;;;5.87;;
30571;SDS011;17348;50.948;10.696;2023-03-07T13:23:22;9.87;;;4.57;;
30571;SDS011;17348;50.948;10.696;2023-03-07T13:26:26;9.77;;;4.83;;
30571;SDS011;17348;50.948;10.696;2023-03-07T13:33:25;9.63;;;4.53;;
30571;SDS011;17348;50.948;10.696;2023-03-07T13:36:30;7.03;;;3.87;;
30571;SDS011;17348;50.948;10.696;2023-03-07T13:39:35;11.30;;;5.47;;
30571;SDS011;17348;50.948;10.696;2023-03-07T13:42:44;11.00;;;5.70;;
30571;SDS011;17348;50.948;10.696;2023-03-07T13:45:48;9.67;;;5.30;;
30571;SDS011;17348;50.948;10.696;2023-03-07T13:49:00;9.33;;;4.57;;
30571;SDS011;17348;50.948;10.696;2023-03-07T13:55:50;11.37;;;5.93;;
30571;SDS011;17348;50.948;10.696;2023-03-07T13:58:58;13.40;;;4.67;;
30571;SDS011;17348;50.948;10.696;2023-03-07T14:02:05;9.90;;;5.13;;
30571;SDS011;17348;50.948;10.696;2023-03-07T14:05:15;9.30;;;4.67;;
30571;SDS011;17348;50.948;10.696;2023-03-07T14:08:19;15.17;;;5.33;;
30571;SDS011;17348;50.948;10.696;2023-03-07T14:11:27;10.23;;;5.33;;
30571;SDS011;17348;50.948;10.696;2023-03-07T14:14:42;11.07;;;5.67;;
30571;SDS011;17348;50.948;10.696;2023-03-07T14:17:58;10.50;;;5.40;;
30571;SDS011;17348;50.948;10.696;2023-03-07T14:21:17;13.70;;;5.73;;
30571;SDS011;17348;50.948;10.696;2023-03-07T14:24:30;13.00;;;5.83;;
30571;SDS011;17348;50.948;10.696;2023-03-07T14:27:52;11.23;;;5.97;;
30571;SDS011;17348;50.948;10.696;2023-03-07T14:30:57;15.27;;;5.80;;
30571;SDS011;17348;50.948;10.696;2023-03-07T14:34:01;15.57;;;6.50;;
30571;SDS011;17348;50.948;10.696;2023-03-07T14:37:18;13.17;;;5.77;;
30571;SDS011;17348;50.948;10.696;2023-03-07T14:40:27;11.17;;;6.30;;
30571;SDS011;17348;50.948;10.696;2023-03-07T14:43:37;16.07;;;7.73;;
30571;SDS011;17348;50.948;10.696;2023-03-07T14:47:05;32.43;;;11.53;;
30571;SDS011;17348;50.948;10.696;2023-03-07T14:50:16;17.67;;;6.43;;
30571;SDS011;17348;50.948;10.696;2023-03-07T14:53:22;18.67;;;7.43;;
30571;SDS011;17348;50.948;10.696;2023-03-07T14:56:28;18.53;;;6.60;;
30571;SDS011;17348;50.948;10.696;2023-03-07T14:59:33;10.33;;;5.60;;
30571;SDS011;17348;50.948;10.696;2023-03-07T15:02:36;11.93;;;6.50;;
30571;SDS011;17348;50.948;10.696;2023-03-07T15:05:48;13.90;;;6.50;;
30571;SDS011;17348;50.948;10.696;2023-03-07T15:08:54;8.90;;;4.97;;
30571;SDS011;17348;50.948;10.696;2023-03-07T15:11:58;14.70;;;5.53;;
30571;SDS011;17348;50.948;10.696;2023-03-07T15:15:05;12.17;;;5.37;;
30571;SDS011;17348;50.948;10.696;2023-03-07T15:18:17;21.20;;;8.43;;
30571;SDS011;17348;50.948;10.696;2023-03-07T15:21:22;16.47;;;5.80;;
30571;SDS011;17348;50.948;10.696;2023-03-07T15:24:28;10.93;;;5.40;;
30571;SDS011;17348;50.948;10.696;2023-03-07T15:27:33;12.77;;;6.00;;
30571;SDS011;17348;50.948;10.696;2023-03-07T15:30:36;12.70;;;6.40;;
30571;SDS011;17348;50.948;10.696;2023-03-07T15:33:39;9.57;;;5.03;;
30571;SDS011;17348;50.948;10.696;2023-03-07T15:36:41;10.13;;;5.27;;
30571;SDS011;17348;50.948;10.696;2023-03-07T15:39:52;19.00;;;5.60;;
30571;SDS011;17348;50.948;10.696;2023-03-07T15:42:56;11.90;;;5.67;;
30571;SDS011;17348;50.948;10.696;2023-03-07T15:46:01;13.53;;;6.03;;
30571;SDS011;17348;50.948;10.696;2023-03-07T15:49:05;15.23;;;6.37;;
30571;SDS011;17348;50.948;10.696;2023-03-07T15:52:24;13.50;;;5.82;;
30571;SDS011;17348;50.948;10.696;2023-03-07T15:55:30;11.23;;;5.50;;
30571;SDS011;17348;50.948;10.696;2023-03-07T15:58:34;11.33;;;5.73;;
30571;SDS011;17348;50.948;10.696;2023-03-07T16:01:37;12.10;;;5.70;;
30571;SDS011;17348;50.948;10.696;2023-03-07T16:04:40;14.00;;;6.30;;
30571;SDS011;17348;50.948;10.696;2023-03-07T16:07:42;13.37;;;5.70;;
30571;SDS011;17348;50.948;10.696;2023-03-07T16:10:47;14.70;;;6.20;;
30571;SDS011;17348;50.948;10.696;2023-03-07T16:13:51;16.40;;;6.37;;
30571;SDS011;17348;50.948;10.696;2023-03-07T16:16:54;16.03;;;6.60;;
30571;SDS011;17348;50.948;10.696;2023-03-07T16:19:59;11.63;;;6.20;;
30571;SDS011;17348;50.948;10.696;2023-03-07T16:23:04;13.77;;;6.63;;
30571;SDS011;17348;50.948;10.696;2023-03-07T16:26:14;15.50;;;7.00;;
30571;SDS011;17348;50.948;10.696;2023-03-07T16:29:19;13.97;;;7.03;;
30571;SDS011;17348;50.948;10.696;2023-03-07T16:32:23;17.97;;;7.30;;
30571;SDS011;17348;50.948;10.696;2023-03-07T16:35:26;15.63;;;7.80;;
30571;SDS011;17348;50.948;10.696;2023-03-07T16:38:29;20.47;;;10.13;;
30571;SDS011;17348;50.948;10.696;2023-03-07T16:41:33;14.90;;;6.60;;
30571;SDS011;17348;50.948;10.696;2023-03-07T16:44:38;15.27;;;6.77;;
30571;SDS011;17348;50.948;10.696;2023-03-07T16:47:41;14.43;;;6.93;;
30571;SDS011;17348;50.948;10.696;2023-03-07T16:50:43;9.83;;;4.63;;
30571;SDS011;17348;50.948;10.696;2023-03-07T16:53:46;5.60;;;2.80;;
30571;SDS011;17348;50.948;10.696;2023-03-07T16:56:51;6.03;;;2.80;;
30571;SDS011;17348;50.948;10.696;2023-03-07T16:59:54;4.93;;;2.60;;
30571;SDS011;17348;50.948;10.696;2023-03-07T17:02:57;5.30;;;2.53;;
30571;SDS011;17348;50.948;10.696;2023-03-07T17:06:02;8.80;;;3.30;;
30571;SDS011;17348;50.948;10.696;2023-03-07T17:09:05;7.00;;;2.93;;
30571;SDS011;17348;50.948;10.696;2023-03-07T17:12:10;5.40;;;2.57;;
30571;SDS011;17348;50.948;10.696;2023-03-07T17:15:13;5.80;;;2.90;;
30571;SDS011;17348;50.948;10.696;2023-03-07T17:18:18;8.30;;;2.80;;
30571;SDS011;17348;50.948;10.696;2023-03-07T17:21:22;3.13;;;1.90;;
30571;SDS011;17348;50.948;10.696;2023-03-07T17:24:24;3.27;;;2.03;;
30571;SDS011;17348;50.948;10.696;2023-03-07T17:27:29;6.17;;;2.67;;
30571;SDS011;17348;50.948;10.696;2023-03-07T17:30:33;7.07;;;2.50;;
30571;SDS011;17348;50.948;10.696;2023-03-07T17:33:35;5.87;;;3.23;;
30571;SDS011;17348;50.948;10.696;2023-03-07T17:36:37;6.40;;;2.97;;
30571;SDS011;17348;50.948;10.696;2023-03-07T17:39:40;7.23;;;3.03;;
30571;SDS011;17348;50.948;10.696;2023-03-07T17:42:46;6.60;;;3.10;;
30571;SDS011;17348;50.948;10.696;2023-03-07T17:45:50;11.00;;;4.63;;
30571;SDS011;17348;50.948;10.696;2023-03-07T17:48:52;6.57;;;3.60;;
30571;SDS011;17348;50.948;10.696;2023-03-07T17:51:54;5.43;;;3.13;;
30571;SDS011;17348;50.948;10.696;2023-03-07T17:54:57;7.40;;;3.73;;
30571;SDS011;17348;50.948;10.696;2023-03-07T17:58:01;5.03;;;2.63;;
30571;SDS011;17348;50.948;10.696;2023-03-07T18:01:03;2.30;;;1.87;;
30571;SDS011;17348;50.948;10.696;2023-03-07T18:04:07;6.30;;;2.03;;
30571;SDS011;17348;50.948;10.696;2023-03-07T18:07:10;4.83;;;1.90;;
30571;SDS011;17348;50.948;10.696;2023-03-07T18:10:12;4.47;;;2.20;;
30571;SDS011;17348;50.948;10.696;2023-03-07T18:13:16;7.40;;;2.20;;
30571;SDS011;17348;50.948;10.696;2023-03-07T18:16:21;3.03;;;1.83;;
30571;SDS011;17348;50.948;10.696;2023-03-07T18:19:23;1.67;;;1.00;;
30571;SDS011;17348;50.948;10.696;2023-03-07T18:22:26;2.40;;;1.53;;
30571;SDS011;17348;50.948;10.696;2023-03-07T18:25:29;1.67;;;1.27;;